createdAt,value
2018-01-20T00:00:11.234Z,0.00
2018-01-20T00:01:11.029Z,0.00
2018-01-20T00:02:11.716Z,0.00
2018-01-20T00:03:11.034Z,0.00
2018-01-20T00:04:11.422Z,0.00
2018-01-20T00:05:10.837Z,0.00
2018-01-20T00:06:11.344Z,0.00
2018-01-20T00:07:10.996Z,0.00
2018-01-20T00:08:11.942Z,0.00
2018-01-20T00:09:11.762Z,0.00
2018-01-20T00:10:11.672Z,0.00
2018-01-20T00:11:11.202Z,0.00
2018-01-20T00:12:10.953Z,0.00
2018-01-20T00:13:11.671Z,0.00
2018-01-20T00:14:11.093Z,0.00
2018-01-20T00:15:12.763Z,0.00
2018-01-20T00:16:11.400Z,0.00
2018-01-20T00:17:11.455Z,0.00
2018-01-20T00:18:10.951Z,0.00
2018-01-20T00:19:11.969Z,0.00
2018-01-20T00:20:11.332Z,0.00
2018-01-20T00:21:10.736Z,0.00
2018-01-20T00:22:11.619Z,0.00
2018-01-20T00:23:11.403Z,0.00
2018-01-20T00:24:10.620Z,0.00
2018-01-20T00:25:11.520Z,0.00
2018-01-20T00:26:11.341Z,0.00
2018-01-20T00:27:11.036Z,0.00
2018-01-20T00:28:11.947Z,0.00
2018-01-20T00:29:11.737Z,0.00
2018-01-20T00:30:11.644Z,0.00
2018-01-20T00:31:11.798Z,0.00
2018-01-20T00:32:11.188Z,0.00
2018-01-20T00:33:11.511Z,0.00
2018-01-20T00:34:11.394Z,0.00
2018-01-20T00:35:32.307Z,0.00
2018-01-20T00:36:32.850Z,0.00
2018-01-20T00:37:33.184Z,0.00
2018-01-20T00:38:32.546Z,0.00
2018-01-20T00:39:33.260Z,0.00
2018-01-20T00:40:32.671Z,0.00
2018-01-20T00:41:33.387Z,0.00
2018-01-20T00:42:32.896Z,0.00
2018-01-20T00:43:33.678Z,0.00
2018-01-20T00:44:32.889Z,0.00
2018-01-20T00:45:32.260Z,0.00
2018-01-20T00:46:32.540Z,0.00
2018-01-20T00:47:33.115Z,0.00
2018-01-20T00:48:32.260Z,0.00
2018-01-20T00:49:32.981Z,0.00
2018-01-20T00:50:32.249Z,0.00
2018-01-20T00:51:33.184Z,0.00
2018-01-20T00:52:32.434Z,0.00
2018-01-20T00:53:32.791Z,0.00
2018-01-20T00:54:54.098Z,0.00
2018-01-20T00:55:54.576Z,0.00
2018-01-20T00:56:54.046Z,0.00
2018-01-20T00:57:54.367Z,0.00
2018-01-20T00:58:54.986Z,0.00
2018-01-20T00:59:54.347Z,0.00
2018-01-20T01:00:53.562Z,0.00
2018-01-20T01:01:54.035Z,0.00
2018-01-20T01:02:54.840Z,0.00
2018-01-20T01:03:54.596Z,0.00
2018-01-20T01:04:54.006Z,0.00
2018-01-20T01:05:54.853Z,0.00
2018-01-20T01:06:54.693Z,0.00
2018-01-20T01:07:54.291Z,0.00
2018-01-20T01:08:53.609Z,0.00
2018-01-20T01:09:54.086Z,0.00
2018-01-20T01:10:54.567Z,0.00
2018-01-20T01:11:54.375Z,0.00
2018-01-20T01:12:53.588Z,0.00
2018-01-20T01:14:16.038Z,0.00
2018-01-20T01:15:16.285Z,0.00
2018-01-20T01:16:16.381Z,0.00
2018-01-20T01:17:16.912Z,0.00
2018-01-20T01:18:37.816Z,0.00
2018-01-20T01:19:38.137Z,0.00
2018-01-20T01:20:38.844Z,0.00
2018-01-20T01:21:37.988Z,0.00
2018-01-20T01:22:39.772Z,0.00
2018-01-20T01:23:38.443Z,0.00
2018-01-20T01:24:38.207Z,0.00
2018-01-20T01:25:39.229Z,0.00
2018-01-20T01:26:38.703Z,0.00
2018-01-20T01:27:38.119Z,0.00
2018-01-20T01:28:38.866Z,0.00
2018-01-20T01:29:38.185Z,0.00
2018-01-20T01:30:39.075Z,0.00
2018-01-20T01:31:38.743Z,0.00
2018-01-20T01:32:38.443Z,0.00
2018-01-20T01:33:38.752Z,0.00
2018-01-20T01:34:38.080Z,0.00
2018-01-20T01:35:38.881Z,0.00
2018-01-20T01:36:38.415Z,0.00
2018-01-20T01:37:38.713Z,0.00
2018-01-20T01:38:38.530Z,0.00
2018-01-20T01:39:38.089Z,0.00
2018-01-20T01:40:38.567Z,0.00
2018-01-20T01:41:38.318Z,0.00
2018-01-20T01:42:38.950Z,0.00
2018-01-20T01:43:38.538Z,0.00
2018-01-20T01:44:38.309Z,0.00
2018-01-20T01:45:37.651Z,0.00
2018-01-20T01:46:38.165Z,0.00
2018-01-20T01:47:38.391Z,0.00
2018-01-20T01:48:38.891Z,0.00
2018-01-20T01:49:38.353Z,0.00
2018-01-20T01:50:38.587Z,0.00
2018-01-20T01:51:38.500Z,0.00
2018-01-20T01:52:37.837Z,0.00
2018-01-20T01:53:38.683Z,0.00
2018-01-20T01:54:38.152Z,0.00
2018-01-20T01:55:38.879Z,0.00
2018-01-20T01:56:38.110Z,0.00
2018-01-20T01:57:38.739Z,0.00
2018-01-20T01:58:38.281Z,0.00
2018-01-20T01:59:39.002Z,0.00
2018-01-20T02:00:38.860Z,0.00
2018-01-20T02:01:59.524Z,0.00
2018-01-20T02:03:00.066Z,0.00
2018-01-20T02:04:00.588Z,0.00
2018-01-20T02:05:21.590Z,0.00
2018-01-20T02:06:22.283Z,0.00
2018-01-20T02:07:43.466Z,0.00
2018-01-20T02:08:43.993Z,0.00
2018-01-20T02:09:43.570Z,0.00
2018-01-20T02:10:44.137Z,0.00
2018-01-20T02:11:43.891Z,0.00
2018-01-20T02:12:43.260Z,0.00
2018-01-20T02:13:43.822Z,0.00
2018-01-20T02:14:43.583Z,0.00
2018-01-20T02:15:43.389Z,0.00
2018-01-20T02:16:44.048Z,0.00
2018-01-20T02:17:43.430Z,0.00
2018-01-20T02:18:44.129Z,0.00
2018-01-20T02:19:43.659Z,0.00
2018-01-20T02:20:43.737Z,0.00
2018-01-20T02:21:43.352Z,0.00
2018-01-20T02:22:43.764Z,0.00
2018-01-20T02:23:43.164Z,0.00
2018-01-20T02:24:43.881Z,0.00
2018-01-20T02:25:43.472Z,0.00
2018-01-20T02:26:43.803Z,0.00
2018-01-20T02:27:43.244Z,0.00
2018-01-20T02:28:44.108Z,0.00
2018-01-20T02:29:43.778Z,0.00
2018-01-20T02:30:43.284Z,0.00
2018-01-20T02:31:43.545Z,0.00
2018-01-20T02:32:44.422Z,0.00
2018-01-20T02:33:43.574Z,0.00
2018-01-20T02:34:44.097Z,0.00
2018-01-20T02:35:43.172Z,0.00
2018-01-20T02:36:43.730Z,0.00
2018-01-20T02:37:43.147Z,0.00
2018-01-20T02:38:43.900Z,0.00
2018-01-20T02:39:43.335Z,0.00
2018-01-20T02:40:44.135Z,0.00
2018-01-20T02:41:43.791Z,0.00
2018-01-20T02:42:43.045Z,0.00
2018-01-20T02:43:43.355Z,0.00
2018-01-20T02:44:43.553Z,0.00
2018-01-20T02:45:44.111Z,0.00
2018-01-20T02:46:43.246Z,0.00
2018-01-20T02:47:43.780Z,0.00
2018-01-20T02:49:04.667Z,0.00
2018-01-20T02:50:04.975Z,0.00
2018-01-20T02:51:05.277Z,0.00
2018-01-20T02:52:25.581Z,0.00
2018-01-20T02:53:26.075Z,0.00
2018-01-20T02:54:26.699Z,0.00
2018-01-20T02:55:26.243Z,0.00
2018-01-20T02:56:26.772Z,0.00
2018-01-20T02:57:26.561Z,0.00
2018-01-20T02:58:26.076Z,0.00
2018-01-20T02:59:26.799Z,0.00
2018-01-20T03:00:26.391Z,0.00
2018-01-20T03:01:25.919Z,0.00
2018-01-20T03:02:26.207Z,0.00
2018-01-20T03:03:25.751Z,0.00
2018-01-20T03:04:25.898Z,0.00
2018-01-20T03:05:26.455Z,0.00
2018-01-20T03:06:25.678Z,0.00
2018-01-20T03:07:25.947Z,0.00
2018-01-20T03:08:26.559Z,0.00
2018-01-20T03:09:25.938Z,0.00
2018-01-20T03:10:26.127Z,0.00
2018-01-20T03:11:26.905Z,0.00
2018-01-20T03:12:26.331Z,0.00
2018-01-20T03:13:26.564Z,0.00
2018-01-20T03:14:26.193Z,0.00
2018-01-20T03:15:27.010Z,0.00
2018-01-20T03:16:26.222Z,0.00
2018-01-20T03:17:26.444Z,0.00
2018-01-20T03:18:25.616Z,0.00
2018-01-20T03:19:25.967Z,0.00
2018-01-20T03:20:26.214Z,0.00
2018-01-20T03:21:26.887Z,0.00
2018-01-20T03:22:26.142Z,0.00
2018-01-20T03:23:25.789Z,0.00
2018-01-20T03:24:26.619Z,0.00
2018-01-20T03:25:47.584Z,0.00
2018-01-20T03:26:48.399Z,0.00
2018-01-20T03:27:47.977Z,0.00
2018-01-20T03:28:48.652Z,0.00
2018-01-20T03:29:48.444Z,0.00
2018-01-20T03:30:48.095Z,0.00
2018-01-20T03:31:47.595Z,0.00
2018-01-20T03:32:48.081Z,0.00
2018-01-20T03:33:48.486Z,0.00
2018-01-20T03:34:48.296Z,0.00
2018-01-20T03:35:47.668Z,0.00
2018-01-20T03:37:09.120Z,0.00
2018-01-20T03:38:09.579Z,0.00
2018-01-20T03:39:10.183Z,0.00
2018-01-20T03:40:31.175Z,0.00
2018-01-20T03:41:31.566Z,0.00
2018-01-20T03:42:32.356Z,0.00
2018-01-20T03:43:32.089Z,0.00
2018-01-20T03:44:31.951Z,0.00
2018-01-20T03:45:31.706Z,0.00
2018-01-20T03:46:32.486Z,0.00
2018-01-20T03:47:32.138Z,0.00
2018-01-20T03:48:31.926Z,0.00
2018-01-20T03:49:52.708Z,0.00
2018-01-20T03:50:52.967Z,0.00
2018-01-20T03:51:53.269Z,0.00
2018-01-20T03:52:53.262Z,0.00
2018-01-20T03:53:52.879Z,0.00
2018-01-20T03:54:53.476Z,0.00
2018-01-20T03:55:52.681Z,0.00
2018-01-20T03:56:53.006Z,0.00
2018-01-20T03:57:53.915Z,0.00
2018-01-20T03:58:53.363Z,0.00
2018-01-20T03:59:53.089Z,0.00
2018-01-20T04:00:52.999Z,0.00
2018-01-20T04:01:53.721Z,0.00
2018-01-20T04:02:53.484Z,0.00
2018-01-20T04:03:53.088Z,0.00
2018-01-20T04:04:53.486Z,0.00
2018-01-20T04:05:52.888Z,0.00
2018-01-20T04:06:53.724Z,0.00
2018-01-20T04:07:53.543Z,0.00
2018-01-20T04:08:52.794Z,0.00
2018-01-20T04:09:53.050Z,0.00
2018-01-20T04:10:53.642Z,0.00
2018-01-20T04:11:53.385Z,0.00
2018-01-20T04:12:53.246Z,0.00
2018-01-20T04:13:54.239Z,0.00
2018-01-20T04:14:52.672Z,2.00
2018-01-20T04:15:53.766Z,2.00
2018-01-20T04:16:53.312Z,0.00
2018-01-20T04:17:52.692Z,0.00
2018-01-20T04:18:53.071Z,0.00
2018-01-20T04:19:53.618Z,0.00
2018-01-20T04:20:53.156Z,0.00
2018-01-20T04:22:14.572Z,0.00
2018-01-20T04:23:15.037Z,0.00
2018-01-20T04:24:14.393Z,0.00
2018-01-20T04:25:15.030Z,0.00
2018-01-20T04:26:15.724Z,0.00
2018-01-20T04:27:15.454Z,0.00
2018-01-20T04:28:15.266Z,0.00
2018-01-20T04:29:14.730Z,0.00
2018-01-20T04:30:15.250Z,0.00
2018-01-20T04:31:14.981Z,0.00
2018-01-20T04:32:15.458Z,0.00
2018-01-20T04:33:14.602Z,0.00
2018-01-20T04:34:14.743Z,0.00
2018-01-20T04:35:15.058Z,0.00
2018-01-20T04:36:15.418Z,0.00
2018-01-20T04:37:15.074Z,0.00
2018-01-20T04:38:14.653Z,0.00
2018-01-20T04:39:15.075Z,0.00
2018-01-20T04:40:14.533Z,0.00
2018-01-20T04:41:14.940Z,0.00
2018-01-20T04:42:15.867Z,0.00
2018-01-20T04:43:36.711Z,0.00
2018-01-20T04:44:37.285Z,0.00
2018-01-20T04:45:37.745Z,0.00
2018-01-20T04:46:37.203Z,0.00
2018-01-20T04:47:37.805Z,0.00
2018-01-20T04:48:37.054Z,0.00
2018-01-20T04:49:37.851Z,0.00
2018-01-20T04:50:37.292Z,0.00
2018-01-20T04:51:38.673Z,0.00
2018-01-20T04:52:37.069Z,0.00
2018-01-20T04:53:37.780Z,0.00
2018-01-20T04:54:37.308Z,0.00
2018-01-20T04:55:37.755Z,0.00
2018-01-20T04:56:37.023Z,0.00
2018-01-20T04:57:37.840Z,0.00
2018-01-20T04:58:37.432Z,0.00
2018-01-20T04:59:37.123Z,0.00
2018-01-20T05:00:37.995Z,0.00
2018-01-20T05:02:04.947Z,0.00
2018-01-20T05:03:05.628Z,0.00
2018-01-20T05:04:05.045Z,0.00
2018-01-20T05:05:05.410Z,0.00
2018-01-20T05:06:05.643Z,0.00
2018-01-20T05:07:05.877Z,0.00
2018-01-20T05:08:05.374Z,0.00
2018-01-20T05:09:05.821Z,0.00
2018-01-20T05:10:04.911Z,0.00
2018-01-20T05:11:05.242Z,0.00
2018-01-20T05:12:05.689Z,0.00
2018-01-20T05:13:05.260Z,0.00
2018-01-20T05:14:05.521Z,0.00
2018-01-20T05:15:04.929Z,0.00
2018-01-20T05:16:05.398Z,0.00
2018-01-20T05:17:05.746Z,0.00
2018-01-20T05:18:26.553Z,0.00
2018-01-20T05:19:26.750Z,0.00
2018-01-20T05:20:27.459Z,0.00
2018-01-20T05:21:27.159Z,0.00
2018-01-20T05:22:26.822Z,0.00
2018-01-20T05:23:27.458Z,0.00
2018-01-20T05:24:27.229Z,0.00
2018-01-20T05:25:26.839Z,0.00
2018-01-20T05:26:26.134Z,0.00
2018-01-20T05:27:26.620Z,0.00
2018-01-20T05:28:26.800Z,0.00
2018-01-20T05:29:27.526Z,0.00
2018-01-20T05:30:27.163Z,0.00
2018-01-20T05:31:26.524Z,0.00
2018-01-20T05:32:27.115Z,0.00
2018-01-20T05:33:26.747Z,0.00
2018-01-20T05:34:27.117Z,0.00
2018-01-20T05:35:26.356Z,0.00
2018-01-20T05:36:26.513Z,0.00
2018-01-20T05:37:26.708Z,0.00
2018-01-20T05:38:48.141Z,0.00
2018-01-20T05:40:10.389Z,0.00
2018-01-20T05:41:10.842Z,0.00
2018-01-20T05:42:52.785Z,0.00
2018-01-20T05:43:53.655Z,0.00
2018-01-20T05:45:14.191Z,0.00
2018-01-20T05:46:14.618Z,0.00
2018-01-20T05:47:14.422Z,0.00
2018-01-20T05:48:14.667Z,0.00
2018-01-20T05:49:13.828Z,0.00
2018-01-20T05:50:14.694Z,0.00
2018-01-20T05:51:14.250Z,0.00
2018-01-20T05:52:14.635Z,0.00
2018-01-20T05:53:14.901Z,0.00
2018-01-20T05:54:14.671Z,0.00
2018-01-20T05:55:35.036Z,0.00
2018-01-20T05:56:35.739Z,0.00
2018-01-20T05:57:35.185Z,0.00
2018-01-20T05:58:35.839Z,0.00
2018-01-20T05:59:56.039Z,0.00
2018-01-20T06:00:56.338Z,0.00
2018-01-20T06:01:56.927Z,0.00
2018-01-20T06:02:56.428Z,0.00
2018-01-20T06:04:17.693Z,0.00
2018-01-20T06:05:18.431Z,0.00
2018-01-20T06:06:19.362Z,0.00
2018-01-20T06:07:18.698Z,0.00
2018-01-20T06:08:18.065Z,0.00
2018-01-20T06:09:18.699Z,0.00
2018-01-20T06:10:38.891Z,0.00
2018-01-20T06:11:39.593Z,0.00
2018-01-20T06:12:39.975Z,0.00
2018-01-20T06:13:39.705Z,0.00
2018-01-20T06:14:41.355Z,0.00
2018-01-20T06:16:02.970Z,0.00
2018-01-20T06:17:03.724Z,0.00
2018-01-20T06:18:03.058Z,0.00
2018-01-20T06:19:03.676Z,0.00
2018-01-20T06:20:24.140Z,0.00
2018-01-20T06:21:24.475Z,0.00
2018-01-20T06:22:24.815Z,0.00
2018-01-20T06:23:24.390Z,0.00
2018-01-20T06:24:24.866Z,0.00
2018-01-20T06:25:23.916Z,0.00
2018-01-20T06:26:24.661Z,0.00
2018-01-20T06:27:23.984Z,0.00
2018-01-20T06:28:24.794Z,0.00
2018-01-20T06:29:24.574Z,0.00
2018-01-20T06:30:25.341Z,0.00
2018-01-20T06:31:24.700Z,0.00
2018-01-20T06:32:24.849Z,0.00
2018-01-20T06:33:24.874Z,0.00
2018-01-20T06:34:24.314Z,0.00
2018-01-20T06:35:24.971Z,0.00
2018-01-20T06:36:24.060Z,0.00
2018-01-20T06:37:25.520Z,0.00
2018-01-20T06:38:25.589Z,0.00
2018-01-20T06:39:24.919Z,0.00
2018-01-20T06:40:24.266Z,0.00
2018-01-20T06:41:24.700Z,0.00
2018-01-20T06:42:25.431Z,0.00
2018-01-20T06:43:25.190Z,1.00
2018-01-20T06:44:25.151Z,1.00
2018-01-20T06:45:24.366Z,0.00
2018-01-20T06:46:25.083Z,1.00
2018-01-20T06:47:24.406Z,1.00
2018-01-20T06:48:24.829Z,1.00
2018-01-20T06:49:24.174Z,1.00
2018-01-20T06:50:24.751Z,2.00
2018-01-20T06:51:25.038Z,1.00
2018-01-20T06:52:24.231Z,2.00
2018-01-20T06:53:24.447Z,2.00
2018-01-20T06:54:24.947Z,3.00
2018-01-20T06:55:24.556Z,3.00
2018-01-20T06:56:25.175Z,4.00
2018-01-20T06:57:24.802Z,4.00
2018-01-20T06:58:24.614Z,5.00
2018-01-20T06:59:25.259Z,5.00
2018-01-20T07:00:24.945Z,6.00
2018-01-20T07:01:45.805Z,7.00
2018-01-20T07:02:46.441Z,9.00
2018-01-20T07:03:46.233Z,11.00
2018-01-20T07:04:45.485Z,14.00
2018-01-20T07:05:46.066Z,15.00
2018-01-20T07:07:08.818Z,17.00
2018-01-20T07:08:08.173Z,19.00
2018-01-20T07:09:08.556Z,23.00
2018-01-20T07:10:08.641Z,29.00
2018-01-20T07:11:08.514Z,42.00
2018-01-20T07:12:07.996Z,45.00
2018-01-20T07:13:08.987Z,43.00
2018-01-20T07:14:08.349Z,46.00
2018-01-20T07:15:07.711Z,52.00
2018-01-20T07:16:08.541Z,57.00
2018-01-20T07:17:08.264Z,77.00
2018-01-20T07:18:08.736Z,87.00
2018-01-20T07:19:07.901Z,94.00
2018-01-20T07:20:08.496Z,99.00
2018-01-20T07:21:08.045Z,109.00
2018-01-20T07:22:08.904Z,119.00
2018-01-20T07:23:08.255Z,133.00
2018-01-20T07:24:30.428Z,162.00
2018-01-20T07:25:31.709Z,148.00
2018-01-20T07:26:31.210Z,188.00
2018-01-20T07:27:30.894Z,206.00
2018-01-20T07:28:31.658Z,259.00
2018-01-20T07:29:31.599Z,262.00
2018-01-20T07:30:52.705Z,270.00
2018-01-20T07:31:53.278Z,283.00
2018-01-20T07:32:52.929Z,237.00
2018-01-20T07:33:53.608Z,284.00
2018-01-20T07:34:52.718Z,378.00
2018-01-20T07:35:53.123Z,390.00
2018-01-20T07:36:52.527Z,413.00
2018-01-20T07:37:52.746Z,360.00
2018-01-20T07:38:53.559Z,389.00
2018-01-20T07:39:53.059Z,458.00
2018-01-20T07:40:53.595Z,440.00
2018-01-20T07:41:53.326Z,508.00
2018-01-20T07:43:14.133Z,528.00
2018-01-20T07:44:14.514Z,588.00
2018-01-20T07:45:14.595Z,591.00
2018-01-20T07:46:15.510Z,591.00
2018-01-20T07:47:15.189Z,592.00
2018-01-20T07:48:14.464Z,711.00
2018-01-20T07:49:15.015Z,767.00
2018-01-20T07:50:17.368Z,865.00
2018-01-20T07:51:15.031Z,860.00
2018-01-20T07:52:35.993Z,939.00
2018-01-20T07:53:36.435Z,933.00
2018-01-20T07:54:36.901Z,1176.00
2018-01-20T07:55:37.774Z,1039.00
2018-01-20T07:56:36.310Z,1187.00
2018-01-20T07:57:36.782Z,1304.00
2018-01-20T07:58:42.028Z,1389.00
2018-01-20T07:59:37.141Z,1379.00
2018-01-20T08:00:37.148Z,1403.00
2018-01-20T08:01:36.992Z,1516.00
2018-01-20T08:02:36.714Z,1688.00
2018-01-20T08:03:36.583Z,1946.00
2018-01-20T08:04:36.088Z,1742.00
2018-01-20T08:05:36.802Z,1456.00
2018-01-20T08:06:58.922Z,1554.00
2018-01-20T08:07:59.531Z,1658.00
2018-01-20T08:08:58.990Z,1863.00
2018-01-20T08:09:58.850Z,1687.00
2018-01-20T08:10:59.243Z,1646.00
2018-01-20T08:11:58.796Z,1718.00
2018-01-20T08:12:59.866Z,1623.00
2018-01-20T08:13:59.918Z,1638.00
2018-01-20T08:14:59.573Z,1995.00
2018-01-20T08:15:59.522Z,2620.00
2018-01-20T08:16:59.269Z,3368.00
2018-01-20T08:17:59.223Z,4202.00
2018-01-20T08:18:59.027Z,4129.00
2018-01-20T08:19:58.527Z,3138.00
2018-01-20T08:20:59.569Z,3130.00
2018-01-20T08:21:58.999Z,3446.00
2018-01-20T08:22:58.540Z,3914.00
2018-01-20T08:23:59.032Z,3441.00
2018-01-20T08:24:58.812Z,3744.00
2018-01-20T08:25:59.436Z,3168.00
2018-01-20T08:26:58.772Z,3112.00
2018-01-20T08:27:59.318Z,3539.00
2018-01-20T08:28:58.693Z,2900.00
2018-01-20T08:29:59.236Z,3725.00
2018-01-20T08:30:58.756Z,3185.00
2018-01-20T08:31:59.728Z,2997.00
2018-01-20T08:32:59.637Z,3150.00
2018-01-20T08:33:59.441Z,3798.00
2018-01-20T08:34:58.848Z,3634.00
2018-01-20T08:35:58.832Z,4274.00
2018-01-20T08:36:59.333Z,3970.00
2018-01-20T08:37:59.478Z,3323.00
2018-01-20T08:38:59.066Z,3300.00
2018-01-20T08:39:58.756Z,3414.00
2018-01-20T08:40:58.288Z,3312.00
2018-01-20T08:41:58.897Z,3079.00
2018-01-20T08:42:59.382Z,2835.00
2018-01-20T08:43:59.108Z,2510.00
2018-01-20T08:44:59.149Z,2867.00
2018-01-20T08:45:58.621Z,3241.00
2018-01-20T08:46:59.264Z,3392.00
2018-01-20T08:47:58.877Z,3629.00
2018-01-20T08:48:58.839Z,2870.00
2018-01-20T08:49:59.998Z,3459.00
2018-01-20T08:50:59.305Z,3801.00
2018-01-20T08:51:59.495Z,4369.00
2018-01-20T08:52:59.287Z,3248.00
2018-01-20T08:53:59.811Z,3150.00
2018-01-20T08:54:59.926Z,3683.00
2018-01-20T08:55:59.567Z,4041.00
2018-01-20T08:56:59.977Z,2917.00
2018-01-20T08:57:59.668Z,3685.00
2018-01-20T08:58:59.600Z,4900.00
2018-01-20T09:00:00.086Z,5662.00
2018-01-20T09:00:58.703Z,5962.00
2018-01-20T09:01:59.520Z,5013.00
2018-01-20T09:03:21.271Z,4815.00
2018-01-20T09:04:20.788Z,5674.00
2018-01-20T09:05:21.754Z,5070.00
2018-01-20T09:06:21.609Z,4811.00
2018-01-20T09:07:21.626Z,5535.00
2018-01-20T09:08:21.152Z,5279.00
2018-01-20T09:09:21.656Z,4519.00
2018-01-20T09:10:20.867Z,5338.00
2018-01-20T09:11:21.174Z,5202.00
2018-01-20T09:12:21.446Z,6038.00
2018-01-20T09:13:21.426Z,6286.00
2018-01-20T09:14:21.336Z,8611.00
2018-01-20T09:15:20.587Z,7821.00
2018-01-20T09:16:21.512Z,6645.00
2018-01-20T09:17:21.758Z,4446.00
2018-01-20T09:18:22.326Z,5038.00
2018-01-20T09:19:20.636Z,4358.00
2018-01-20T09:20:21.163Z,5435.00
2018-01-20T09:21:20.589Z,4597.00
2018-01-20T09:22:21.197Z,4641.00
2018-01-20T09:23:21.232Z,7403.00
2018-01-20T09:24:20.950Z,6148.00
2018-01-20T09:25:21.307Z,4552.00
2018-01-20T09:26:21.132Z,5540.00
2018-01-20T09:27:21.206Z,5701.00
2018-01-20T09:28:20.766Z,6029.00
2018-01-20T09:29:21.571Z,5773.00
2018-01-20T09:30:42.316Z,6421.00
2018-01-20T09:31:42.987Z,6056.00
2018-01-20T09:32:43.799Z,5525.00
2018-01-20T09:33:43.571Z,4317.00
2018-01-20T09:35:04.666Z,3958.00
2018-01-20T09:36:05.122Z,4190.00
2018-01-20T09:37:05.657Z,4194.00
2018-01-20T09:38:05.552Z,4460.00
2018-01-20T09:39:05.088Z,7622.00
2018-01-20T09:40:05.738Z,8724.00
2018-01-20T09:41:05.770Z,9082.00
2018-01-20T09:42:05.643Z,7415.00
2018-01-20T09:43:06.822Z,6285.00
2018-01-20T09:44:05.123Z,6836.00
2018-01-20T09:45:05.761Z,7760.00
2018-01-20T09:46:05.519Z,8550.00
2018-01-20T09:47:05.364Z,8885.00
2018-01-20T09:48:05.099Z,8780.00
2018-01-20T09:49:05.842Z,7588.00
2018-01-20T09:50:05.749Z,7927.00
2018-01-20T09:51:05.228Z,7729.00
2018-01-20T09:52:06.202Z,8066.00
2018-01-20T09:53:06.176Z,7338.00
2018-01-20T09:54:05.846Z,7621.00
2018-01-20T09:55:05.616Z,5792.00
2018-01-20T09:56:04.995Z,5826.00
2018-01-20T09:57:06.688Z,6467.00
2018-01-20T09:58:05.425Z,6706.00
2018-01-20T09:59:04.778Z,7145.00
2018-01-20T10:00:05.689Z,7505.00
2018-01-20T10:01:27.587Z,7785.00
2018-01-20T10:02:27.789Z,7110.00
2018-01-20T10:03:27.628Z,8093.00
2018-01-20T10:04:27.339Z,10985.00
2018-01-20T10:05:27.265Z,10693.00
2018-01-20T10:06:28.059Z,12294.00
2018-01-20T10:07:28.026Z,9410.00
2018-01-20T10:08:27.522Z,7547.00
2018-01-20T10:09:28.100Z,5897.00
2018-01-20T10:10:49.156Z,5881.00
2018-01-20T10:11:50.250Z,7042.00
2018-01-20T10:12:50.034Z,7106.00
2018-01-20T10:13:49.161Z,9259.00
2018-01-20T10:15:11.311Z,7984.00
2018-01-20T10:16:33.838Z,6913.00
2018-01-20T10:17:34.590Z,6616.00
2018-01-20T10:18:34.047Z,6938.00
2018-01-20T10:19:33.245Z,7661.00
2018-01-20T10:20:33.907Z,8426.00
2018-01-20T10:21:33.564Z,7872.00
2018-01-20T10:22:54.953Z,6828.00
2018-01-20T10:24:17.769Z,8883.00
2018-01-20T10:25:18.800Z,9442.00
2018-01-20T10:26:39.738Z,6485.00
2018-01-20T10:28:01.175Z,5402.00
2018-01-20T10:29:01.883Z,6969.00
2018-01-20T10:30:01.483Z,7299.00
2018-01-20T10:31:02.767Z,6733.00
2018-01-20T10:32:01.926Z,6476.00
2018-01-20T10:33:01.501Z,5783.00
2018-01-20T10:34:25.042Z,5825.00
2018-01-20T10:35:26.397Z,5980.00
2018-01-20T10:36:25.766Z,5811.00
2018-01-20T10:37:25.609Z,5172.00
2018-01-20T10:38:24.933Z,5807.00
2018-01-20T10:39:25.878Z,7059.00
2018-01-20T10:40:25.920Z,8184.00
2018-01-20T10:41:25.819Z,8611.00
2018-01-20T10:42:25.837Z,7597.00
2018-01-20T10:43:25.576Z,6378.00
2018-01-20T10:44:27.001Z,6499.00
2018-01-20T10:45:26.198Z,6188.00
2018-01-20T10:46:25.832Z,5790.00
2018-01-20T10:47:25.237Z,5533.00
2018-01-20T10:48:26.260Z,5161.00
2018-01-20T10:49:25.998Z,5012.00
2018-01-20T10:50:25.615Z,5321.00
2018-01-20T10:51:25.163Z,6132.00
2018-01-20T10:52:26.042Z,6085.00
2018-01-20T10:53:26.375Z,6567.00
2018-01-20T10:54:47.828Z,6706.00
2018-01-20T10:55:48.283Z,6370.00
2018-01-20T10:56:48.364Z,5901.00
2018-01-20T10:57:49.812Z,6433.00
2018-01-20T10:58:48.216Z,6488.00
2018-01-20T10:59:52.448Z,5102.00
2018-01-20T11:00:48.993Z,4110.00
2018-01-20T11:01:48.818Z,3763.00
2018-01-20T11:02:48.494Z,3859.00
2018-01-20T11:03:48.024Z,3478.00
2018-01-20T11:05:10.710Z,4130.00
2018-01-20T11:06:12.368Z,3656.00
2018-01-20T11:07:32.563Z,3855.00
2018-01-20T11:08:33.209Z,4398.00
2018-01-20T11:09:32.641Z,4218.00
2018-01-20T11:10:33.184Z,3778.00
2018-01-20T11:11:56.091Z,5134.00
2018-01-20T11:12:55.134Z,6599.00
2018-01-20T11:13:56.671Z,6955.00
2018-01-20T11:14:55.599Z,7281.00
2018-01-20T11:15:55.640Z,9018.00
2018-01-20T11:16:55.316Z,9067.00
2018-01-20T11:17:54.973Z,8753.00
2018-01-20T11:18:54.534Z,9428.00
2018-01-20T11:19:56.087Z,8090.00
2018-01-20T11:20:54.994Z,8365.00
2018-01-20T11:21:54.871Z,7159.00
2018-01-20T11:22:54.623Z,7465.00
2018-01-20T11:23:55.667Z,7490.00
2018-01-20T11:24:55.599Z,10510.00
2018-01-20T11:25:55.683Z,11870.00
2018-01-20T11:26:56.154Z,11934.00
2018-01-20T11:27:54.911Z,12786.00
2018-01-20T11:28:55.577Z,11563.00
2018-01-20T11:29:56.811Z,10467.00
2018-01-20T11:30:55.893Z,8760.00
2018-01-20T11:31:56.321Z,7279.00
2018-01-20T11:32:56.826Z,6483.00
2018-01-20T11:33:54.401Z,6123.00
2018-01-20T11:34:56.309Z,6710.00
2018-01-20T11:35:55.256Z,5498.00
2018-01-20T11:37:25.333Z,4950.00
2018-01-20T11:38:25.309Z,4806.00
2018-01-20T11:39:25.378Z,4791.00
2018-01-20T11:40:25.541Z,5416.00
2018-01-20T11:41:46.389Z,5462.00
2018-01-20T11:42:46.762Z,6695.00
2018-01-20T11:44:07.967Z,6141.00
2018-01-20T11:45:08.777Z,5737.00
2018-01-20T11:46:08.544Z,6117.00
2018-01-20T11:47:09.031Z,5992.00
2018-01-20T11:48:08.818Z,5003.00
2018-01-20T11:49:08.887Z,3656.00
2018-01-20T11:50:09.351Z,2994.00
2018-01-20T11:51:09.246Z,3159.00
2018-01-20T11:52:09.341Z,3406.00
2018-01-20T11:53:08.359Z,3848.00
2018-01-20T11:54:08.785Z,5362.00
2018-01-20T11:55:08.317Z,5995.00
2018-01-20T11:56:08.016Z,5001.00
2018-01-20T11:57:08.850Z,4555.00
2018-01-20T11:58:36.165Z,3974.00
2018-01-20T11:59:36.089Z,4125.00
2018-01-20T12:00:35.750Z,4089.00
2018-01-20T12:01:57.360Z,3537.00
2018-01-20T12:02:58.018Z,3836.00
2018-01-20T12:03:58.987Z,3967.00
2018-01-20T12:05:00.066Z,4362.00
2018-01-20T12:05:59.097Z,5343.00
2018-01-20T12:06:57.715Z,6264.00
2018-01-20T12:07:57.754Z,7135.00
2018-01-20T12:08:57.694Z,7514.00
2018-01-20T12:09:57.524Z,6921.00
2018-01-20T12:10:57.157Z,6779.00
2018-01-20T12:11:57.974Z,7230.00
2018-01-20T12:12:57.947Z,7990.00
2018-01-20T12:13:58.591Z,8929.00
2018-01-20T12:14:57.405Z,10100.00
2018-01-20T12:15:57.694Z,11281.00
2018-01-20T12:16:57.316Z,12238.00
2018-01-20T12:17:58.862Z,12488.00
2018-01-20T12:19:33.035Z,12030.00
2018-01-20T12:19:58.560Z,11031.00
2018-01-20T12:20:58.046Z,9979.00
2018-01-20T12:21:58.919Z,9715.00
2018-01-20T12:22:58.117Z,9504.00
2018-01-20T12:23:57.490Z,9044.00
2018-01-20T12:24:57.403Z,8842.00
2018-01-20T12:25:57.413Z,8281.00
2018-01-20T12:26:57.349Z,7830.00
2018-01-20T12:28:41.085Z,8139.00
2018-01-20T12:29:41.227Z,7785.00
2018-01-20T12:30:40.888Z,7186.00
2018-01-20T12:31:41.384Z,7159.00
2018-01-20T12:32:40.962Z,7830.00
2018-01-20T12:33:41.604Z,9808.00
2018-01-20T12:34:41.274Z,12144.00
2018-01-20T12:35:41.150Z,13046.00
2018-01-20T12:36:41.168Z,13636.00
2018-01-20T12:37:41.160Z,13751.00
2018-01-20T12:38:41.411Z,13544.00
2018-01-20T12:39:41.330Z,13141.00
2018-01-20T12:40:41.097Z,12657.00
2018-01-20T12:41:41.663Z,11990.00
2018-01-20T12:43:04.236Z,11112.00
2018-01-20T12:44:03.918Z,11017.00
2018-01-20T12:45:03.407Z,11359.00
2018-01-20T12:46:03.120Z,11667.00
2018-01-20T12:47:03.983Z,11550.00
2018-01-20T12:48:03.548Z,11195.00
2018-01-20T12:49:03.949Z,10930.00
2018-01-20T12:50:03.379Z,10805.00
2018-01-20T12:51:03.092Z,10324.00
2018-01-20T12:52:05.442Z,9166.00
2018-01-20T12:53:03.548Z,8016.00
2018-01-20T12:54:04.002Z,7452.00
2018-01-20T12:55:03.640Z,7761.00
2018-01-20T12:56:25.896Z,8023.00
2018-01-20T12:57:26.476Z,8025.00
2018-01-20T12:58:26.612Z,7813.00
2018-01-20T12:59:26.141Z,7750.00
2018-01-20T13:00:26.807Z,7462.00
2018-01-20T13:01:27.872Z,7294.00
2018-01-20T13:02:26.592Z,7623.00
2018-01-20T13:03:26.260Z,7721.00
2018-01-20T13:04:26.767Z,7932.00
2018-01-20T13:05:26.670Z,8397.00
2018-01-20T13:06:26.469Z,8491.00